sensor_id;sensor_type;location;lat;lon;timestamp;temperature;humidity
3071;DHT22;1546;47.208;9.038;2023-02-18T00:00:15;9.60;99.90
3071;DHT22;1546;47.208;9.038;2023-02-18T00:02:43;9.50;99.90
3071;DHT22;1546;47.208;9.038;2023-02-18T00:05:10;9.40;99.90
3071;DHT22;1546;47.208;9.038;2023-02-18T00:07:39;9.40;99.90
3071;DHT22;1546;47.208;9.038;2023-02-18T00:10:09;9.30;99.90
3071;DHT22;1546;47.208;9.038;2023-02-18T00:12:38;9.20;99.90
3071;DHT22;1546;47.208;9.038;2023-02-18T00:15:05;9.00;99.90
3071;DHT22;1546;47.208;9.038;2023-02-18T00:17:34;9.00;99.90
3071;DHT22;1546;47.208;9.038;2023-02-18T00:20:01;9.00;99.90
3071;DHT22;1546;47.208;9.038;2023-02-18T00:22:27;8.90;99.90
3071;DHT22;1546;47.208;9.038;2023-02-18T00:24:56;8.80;99.90
3071;DHT22;1546;47.208;9.038;2023-02-18T00:27:22;8.80;99.90
3071;DHT22;1546;47.208;9.038;2023-02-18T00:29:49;8.70;99.90
3071;DHT22;1546;47.208;9.038;2023-02-18T00:32:16;8.70;99.90
3071;DHT22;1546;47.208;9.038;2023-02-18T00:34:43;8.70;99.90
3071;DHT22;1546;47.208;9.038;2023-02-18T00:37:09;8.70;99.90
3071;DHT22;1546;47.208;9.038;2023-02-18T00:39:36;8.90;99.90
3071;DHT22;1546;47.208;9.038;2023-02-18T00:42:05;8.80;99.90
3071;DHT22;1546;47.208;9.038;2023-02-18T00:44:31;8.90;99.90
3071;DHT22;1546;47.208;9.038;2023-02-18T00:46:58;9.00;99.90
3071;DHT22;1546;47.208;9.038;2023-02-18T00:49:25;9.00;99.90
3071;DHT22;1546;47.208;9.038;2023-02-18T00:51:52;8.90;99.90
3071;DHT22;1546;47.208;9.038;2023-02-18T00:54:19;9.00;99.90
3071;DHT22;1546;47.208;9.038;2023-02-18T00:56:45;9.20;99.90
3071;DHT22;1546;47.208;9.038;2023-02-18T00:59:13;9.00;99.90
3071;DHT22;1546;47.208;9.038;2023-02-18T01:01:40;8.90;99.90
3071;DHT22;1546;47.208;9.038;2023-02-18T01:04:07;8.80;99.90
3071;DHT22;1546;47.208;9.038;2023-02-18T01:06:34;8.70;99.90
3071;DHT22;1546;47.208;9.038;2023-02-18T01:09:01;8.70;99.90
3071;DHT22;1546;47.208;9.038;2023-02-18T01:11:28;8.60;99.90
3071;DHT22;1546;47.208;9.038;2023-02-18T01:13:54;8.60;99.90
3071;DHT22;1546;47.208;9.038;2023-02-18T01:16:23;8.60;99.90
3071;DHT22;1546;47.208;9.038;2023-02-18T01:18:50;8.80;99.90
3071;DHT22;1546;47.208;9.038;2023-02-18T01:21:17;8.90;99.90
3071;DHT22;1546;47.208;9.038;2023-02-18T01:23:44;9.00;99.90
3071;DHT22;1546;47.208;9.038;2023-02-18T01:26:11;9.00;99.90
3071;DHT22;1546;47.208;9.038;2023-02-18T01:28:38;9.10;99.90
3071;DHT22;1546;47.208;9.038;2023-02-18T01:31:06;9.30;99.90
3071;DHT22;1546;47.208;9.038;2023-02-18T01:33:35;9.20;99.90
3071;DHT22;1546;47.208;9.038;2023-02-18T01:36:04;9.20;99.90
3071;DHT22;1546;47.208;9.038;2023-02-18T01:38:31;9.30;99.90
3071;DHT22;1546;47.208;9.038;2023-02-18T01:40:58;9.10;99.90
3071;DHT22;1546;47.208;9.038;2023-02-18T01:43:25;9.00;99.90
3071;DHT22;1546;47.208;9.038;2023-02-18T01:45:58;9.20;99.90
3071;DHT22;1546;47.208;9.038;2023-02-18T01:48:28;9.00;99.90
3071;DHT22;1546;47.208;9.038;2023-02-18T01:51:01;8.80;99.90
3071;DHT22;1546;47.208;9.038;2023-02-18T01:53:32;8.80;99.90
3071;DHT22;1546;47.208;9.038;2023-02-18T01:56:03;8.80;99.90
3071;DHT22;1546;47.208;9.038;2023-02-18T01:58:32;8.70;99.90
3071;DHT22;1546;47.208;9.038;2023-02-18T02:00:59;8.70;99.90
3071;DHT22;1546;47.208;9.038;2023-02-18T02:03:26;8.70;99.90
3071;DHT22;1546;47.208;9.038;2023-02-18T02:05:53;8.60;99.90
3071;DHT22;1546;47.208;9.038;2023-02-18T02:08:21;8.50;99.90
3071;DHT22;1546;47.208;9.038;2023-02-18T02:10:58;8.40;99.90
3071;DHT22;1546;47.208;9.038;2023-02-18T02:13:32;8.50;99.90
3071;DHT22;1546;47.208;9.038;2023-02-18T02:16:06;8.40;99.90
3071;DHT22;1546;47.208;9.038;2023-02-18T02:18:44;8.30;99.90
3071;DHT22;1546;47.208;9.038;2023-02-18T02:27:25;8.00;99.90
3071;DHT22;1546;47.208;9.038;2023-02-18T02:30:18;8.00;99.90
3071;DHT22;1546;47.208;9.038;2023-02-18T02:33:19;8.00;99.90
3071;DHT22;1546;47.208;9.038;2023-02-18T02:35:55;7.90;99.90
3071;DHT22;1546;47.208;9.038;2023-02-18T02:38:30;7.90;99.90
3071;DHT22;1546;47.208;9.038;2023-02-18T02:41:05;7.90;99.90
3071;DHT22;1546;47.208;9.038;2023-02-18T02:43:45;7.80;99.90
3071;DHT22;1546;47.208;9.038;2023-02-18T02:46:18;7.70;99.90
3071;DHT22;1546;47.208;9.038;2023-02-18T02:48:50;7.70;99.90
3071;DHT22;1546;47.208;9.038;2023-02-18T02:51:24;7.70;99.90
3071;DHT22;1546;47.208;9.038;2023-02-18T02:53:53;7.70;99.90
3071;DHT22;1546;47.208;9.038;2023-02-18T02:56:22;7.80;99.90
3071;DHT22;1546;47.208;9.038;2023-02-18T02:58:56;7.70;99.90
3071;DHT22;1546;47.208;9.038;2023-02-18T03:01:35;7.70;99.90
3071;DHT22;1546;47.208;9.038;2023-02-18T03:04:26;7.60;99.90
3071;DHT22;1546;47.208;9.038;2023-02-18T03:07:10;7.60;99.90
3071;DHT22;1546;47.208;9.038;2023-02-18T03:09:51;7.50;99.90
3071;DHT22;1546;47.208;9.038;2023-02-18T03:12:27;7.50;99.90
3071;DHT22;1546;47.208;9.038;2023-02-18T03:15:04;7.60;99.90
3071;DHT22;1546;47.208;9.038;2023-02-18T03:17:36;7.50;99.90
3071;DHT22;1546;47.208;9.038;2023-02-18T03:20:11;7.30;99.90
3071;DHT22;1546;47.208;9.038;2023-02-18T03:22:45;7.40;99.90
3071;DHT22;1546;47.208;9.038;2023-02-18T03:25:14;7.40;99.90
3071;DHT22;1546;47.208;9.038;2023-02-18T03:27:44;7.30;99.90
3071;DHT22;1546;47.208;9.038;2023-02-18T03:30:14;7.40;99.90
3071;DHT22;1546;47.208;9.038;2023-02-18T03:32:42;7.50;99.90
3071;DHT22;1546;47.208;9.038;2023-02-18T03:35:13;7.60;99.90
3071;DHT22;1546;47.208;9.038;2023-02-18T03:37:46;7.50;99.90
3071;DHT22;1546;47.208;9.038;2023-02-18T03:40:13;7.30;99.90
3071;DHT22;1546;47.208;9.038;2023-02-18T03:42:41;7.30;99.90
3071;DHT22;1546;47.208;9.038;2023-02-18T03:45:08;7.40;99.90
3071;DHT22;1546;47.208;9.038;2023-02-18T03:47:35;7.40;99.90
3071;DHT22;1546;47.208;9.038;2023-02-18T03:50:02;7.40;99.90
3071;DHT22;1546;47.208;9.038;2023-02-18T03:52:29;7.20;99.90
3071;DHT22;1546;47.208;9.038;2023-02-18T03:54:57;7.00;99.90
3071;DHT22;1546;47.208;9.038;2023-02-18T03:57:24;6.90;99.90
3071;DHT22;1546;47.208;9.038;2023-02-18T03:59:50;6.90;99.90
3071;DHT22;1546;47.208;9.038;2023-02-18T04:02:17;6.80;99.90
3071;DHT22;1546;47.208;9.038;2023-02-18T04:04:44;6.60;99.90
3071;DHT22;1546;47.208;9.038;2023-02-18T04:07:11;6.50;99.90
3071;DHT22;1546;47.208;9.038;2023-02-18T04:09:38;6.40;99.90
3071;DHT22;1546;47.208;9.038;2023-02-18T04:12:06;6.40;99.90
3071;DHT22;1546;47.208;9.038;2023-02-18T04:14:33;6.50;99.90
3071;DHT22;1546;47.208;9.038;2023-02-18T04:17:00;6.50;99.90
3071;DHT22;1546;47.208;9.038;2023-02-18T04:19:27;6.70;99.90
3071;DHT22;1546;47.208;9.038;2023-02-18T04:21:54;6.80;99.90
3071;DHT22;1546;47.208;9.038;2023-02-18T04:24:20;6.90;99.90
3071;DHT22;1546;47.208;9.038;2023-02-18T04:26:47;6.90;99.90
3071;DHT22;1546;47.208;9.038;2023-02-18T04:29:15;6.90;99.90
3071;DHT22;1546;47.208;9.038;2023-02-18T04:31:42;6.70;99.90
3071;DHT22;1546;47.208;9.038;2023-02-18T04:34:09;6.80;99.90
3071;DHT22;1546;47.208;9.038;2023-02-18T04:36:36;6.80;99.90
3071;DHT22;1546;47.208;9.038;2023-02-18T04:39:03;6.90;99.90
3071;DHT22;1546;47.208;9.038;2023-02-18T04:41:29;6.90;99.90
3071;DHT22;1546;47.208;9.038;2023-02-18T04:43:56;6.80;99.90
3071;DHT22;1546;47.208;9.038;2023-02-18T04:46:25;6.90;99.90
3071;DHT22;1546;47.208;9.038;2023-02-18T04:48:52;6.80;99.90
3071;DHT22;1546;47.208;9.038;2023-02-18T04:51:19;6.70;99.90
3071;DHT22;1546;47.208;9.038;2023-02-18T04:53:45;6.70;99.90
3071;DHT22;1546;47.208;9.038;2023-02-18T04:56:12;6.70;99.90
3071;DHT22;1546;47.208;9.038;2023-02-18T04:58:40;6.70;99.90
3071;DHT22;1546;47.208;9.038;2023-02-18T05:01:06;6.70;99.90
3071;DHT22;1546;47.208;9.038;2023-02-18T05:03:35;6.80;99.90
3071;DHT22;1546;47.208;9.038;2023-02-18T05:06:02;6.90;99.90
3071;DHT22;1546;47.208;9.038;2023-02-18T05:08:28;6.90;99.90
3071;DHT22;1546;47.208;9.038;2023-02-18T05:10:55;7.00;99.90
3071;DHT22;1546;47.208;9.038;2023-02-18T05:13:22;7.00;99.90
3071;DHT22;1546;47.208;9.038;2023-02-18T05:15:49;6.90;99.90
3071;DHT22;1546;47.208;9.038;2023-02-18T05:18:16;6.80;99.90
3071;DHT22;1546;47.208;9.038;2023-02-18T05:20:44;6.80;99.90
3071;DHT22;1546;47.208;9.038;2023-02-18T05:23:11;6.90;99.90
3071;DHT22;1546;47.208;9.038;2023-02-18T05:25:39;6.90;99.90
3071;DHT22;1546;47.208;9.038;2023-02-18T05:28:05;6.90;99.90
3071;DHT22;1546;47.208;9.038;2023-02-18T05:30:32;6.80;99.90
3071;DHT22;1546;47.208;9.038;2023-02-18T05:32:59;6.80;99.90
3071;DHT22;1546;47.208;9.038;2023-02-18T05:35:26;6.80;99.90
3071;DHT22;1546;47.208;9.038;2023-02-18T05:37:54;6.80;99.90
3071;DHT22;1546;47.208;9.038;2023-02-18T05:40:21;6.80;99.90
3071;DHT22;1546;47.208;9.038;2023-02-18T05:42:48;6.80;99.90
3071;DHT22;1546;47.208;9.038;2023-02-18T05:45:15;6.70;99.90
3071;DHT22;1546;47.208;9.038;2023-02-18T05:47:42;6.60;99.90
3071;DHT22;1546;47.208;9.038;2023-02-18T05:50:09;6.30;99.90
3071;DHT22;1546;47.208;9.038;2023-02-18T05:52:36;6.40;99.90
3071;DHT22;1546;47.208;9.038;2023-02-18T05:55:05;6.40;99.90
3071;DHT22;1546;47.208;9.038;2023-02-18T05:57:31;6.40;99.90
3071;DHT22;1546;47.208;9.038;2023-02-18T05:59:58;6.30;99.90
3071;DHT22;1546;47.208;9.038;2023-02-18T06:02:25;6.40;99.90
3071;DHT22;1546;47.208;9.038;2023-02-18T06:04:52;6.40;99.90
3071;DHT22;1546;47.208;9.038;2023-02-18T06:07:19;6.40;99.90
3071;DHT22;1546;47.208;9.038;2023-02-18T06:09:46;6.40;99.90
3071;DHT22;1546;47.208;9.038;2023-02-18T06:12:14;6.40;99.90
3071;DHT22;1546;47.208;9.038;2023-02-18T06:14:41;6.20;99.90
3071;DHT22;1546;47.208;9.038;2023-02-18T06:17:08;6.10;99.90
3071;DHT22;1546;47.208;9.038;2023-02-18T06:19:35;6.10;99.90
3071;DHT22;1546;47.208;9.038;2023-02-18T06:22:01;6.10;99.90
3071;DHT22;1546;47.208;9.038;2023-02-18T06:24:28;6.30;99.90
3071;DHT22;1546;47.208;9.038;2023-02-18T06:26:55;6.40;99.90
3071;DHT22;1546;47.208;9.038;2023-02-18T06:29:23;6.40;99.90
3071;DHT22;1546;47.208;9.038;2023-02-18T06:31:50;6.20;99.90
3071;DHT22;1546;47.208;9.038;2023-02-18T06:34:17;6.30;99.90
3071;DHT22;1546;47.208;9.038;2023-02-18T06:36:44;6.40;99.90
3071;DHT22;1546;47.208;9.038;2023-02-18T06:39:11;6.50;99.90
3071;DHT22;1546;47.208;9.038;2023-02-18T06:41:38;6.60;99.90
3071;DHT22;1546;47.208;9.038;2023-02-18T06:44:06;6.70;99.90
3071;DHT22;1546;47.208;9.038;2023-02-18T06:46:34;6.80;99.90
3071;DHT22;1546;47.208;9.038;2023-02-18T06:49:01;7.00;99.90
3071;DHT22;1546;47.208;9.038;2023-02-18T06:51:28;7.20;99.90
3071;DHT22;1546;47.208;9.038;2023-02-18T06:53:55;7.20;99.90
3071;DHT22;1546;47.208;9.038;2023-02-18T06:56:22;7.40;99.90
3071;DHT22;1546;47.208;9.038;2023-02-18T06:58:49;7.50;99.90
3071;DHT22;1546;47.208;9.038;2023-02-18T07:01:15;7.70;99.90
3071;DHT22;1546;47.208;9.038;2023-02-18T07:03:44;7.80;99.90
3071;DHT22;1546;47.208;9.038;2023-02-18T07:06:11;8.00;99.90
3071;DHT22;1546;47.208;9.038;2023-02-18T07:08:37;7.90;99.90
3071;DHT22;1546;47.208;9.038;2023-02-18T07:11:05;7.90;99.90
3071;DHT22;1546;47.208;9.038;2023-02-18T07:13:32;7.90;99.90
3071;DHT22;1546;47.208;9.038;2023-02-18T07:15:59;7.70;99.90
3071;DHT22;1546;47.208;9.038;2023-02-18T07:18:25;7.60;99.90
3071;DHT22;1546;47.208;9.038;2023-02-18T07:20:54;7.70;99.90
3071;DHT22;1546;47.208;9.038;2023-02-18T07:23:20;7.80;99.90
3071;DHT22;1546;47.208;9.038;2023-02-18T07:25:47;7.90;99.90
3071;DHT22;1546;47.208;9.038;2023-02-18T07:28:14;8.10;99.90
3071;DHT22;1546;47.208;9.038;2023-02-18T07:30:41;8.30;99.90
3071;DHT22;1546;47.208;9.038;2023-02-18T07:33:08;8.50;99.90
3071;DHT22;1546;47.208;9.038;2023-02-18T07:35:35;8.90;99.90
3071;DHT22;1546;47.208;9.038;2023-02-18T07:38:03;8.80;99.90
3071;DHT22;1546;47.208;9.038;2023-02-18T07:40:30;8.90;99.90
3071;DHT22;1546;47.208;9.038;2023-02-18T07:42:56;9.00;99.90
3071;DHT22;1546;47.208;9.038;2023-02-18T07:45:23;9.20;99.90
3071;DHT22;1546;47.208;9.038;2023-02-18T07:47:50;9.20;99.90
3071;DHT22;1546;47.208;9.038;2023-02-18T07:50:17;9.10;99.90
3071;DHT22;1546;47.208;9.038;2023-02-18T07:52:44;9.00;99.90
3071;DHT22;1546;47.208;9.038;2023-02-18T07:55:12;9.20;99.90
3071;DHT22;1546;47.208;9.038;2023-02-18T07:57:39;9.50;99.90
3071;DHT22;1546;47.208;9.038;2023-02-18T08:00:20;9.60;99.90
3071;DHT22;1546;47.208;9.038;2023-02-18T08:02:46;9.80;99.90
3071;DHT22;1546;47.208;9.038;2023-02-18T08:05:13;10.00;99.90
3071;DHT22;1546;47.208;9.038;2023-02-18T08:07:40;10.10;99.90
3071;DHT22;1546;47.208;9.038;2023-02-18T08:10:07;10.20;99.90
3071;DHT22;1546;47.208;9.038;2023-02-18T08:12:35;10.20;99.90
3071;DHT22;1546;47.208;9.038;2023-02-18T08:15:03;10.20;99.90
3071;DHT22;1546;47.208;9.038;2023-02-18T08:17:30;10.10;99.90
3071;DHT22;1546;47.208;9.038;2023-02-18T08:19:57;10.10;99.90
3071;DHT22;1546;47.208;9.038;2023-02-18T08:22:24;10.10;99.90
3071;DHT22;1546;47.208;9.038;2023-02-18T08:24:53;10.20;99.90
3071;DHT22;1546;47.208;9.038;2023-02-18T08:27:20;10.10;99.90
3071;DHT22;1546;47.208;9.038;2023-02-18T08:29:48;10.00;99.90
3071;DHT22;1546;47.208;9.038;2023-02-18T08:32:15;10.00;99.90
3071;DHT22;1546;47.208;9.038;2023-02-18T08:34:42;10.20;99.90
3071;DHT22;1546;47.208;9.038;2023-02-18T08:37:08;10.40;99.90
3071;DHT22;1546;47.208;9.038;2023-02-18T08:39:36;10.50;99.90
3071;DHT22;1546;47.208;9.038;2023-02-18T08:42:03;10.60;99.90
3071;DHT22;1546;47.208;9.038;2023-02-18T08:44:30;10.60;99.90
3071;DHT22;1546;47.208;9.038;2023-02-18T08:46:58;10.50;99.90
3071;DHT22;1546;47.208;9.038;2023-02-18T08:49:25;10.70;99.90
3071;DHT22;1546;47.208;9.038;2023-02-18T08:51:52;10.80;99.90
3071;DHT22;1546;47.208;9.038;2023-02-18T08:54:19;11.00;99.90
3071;DHT22;1546;47.208;9.038;2023-02-18T08:56:46;11.10;99.90
3071;DHT22;1546;47.208;9.038;2023-02-18T08:59:12;11.30;99.90
3071;DHT22;1546;47.208;9.038;2023-02-18T09:01:39;11.40;99.90
3071;DHT22;1546;47.208;9.038;2023-02-18T09:04:07;11.10;99.90
3071;DHT22;1546;47.208;9.038;2023-02-18T09:06:36;11.20;99.90
3071;DHT22;1546;47.208;9.038;2023-02-18T09:09:03;11.30;99.90
3071;DHT22;1546;47.208;9.038;2023-02-18T09:11:30;11.40;99.90
3071;DHT22;1546;47.208;9.038;2023-02-18T09:13:57;11.60;99.90
3071;DHT22;1546;47.208;9.038;2023-02-18T09:16:24;11.90;99.90
3071;DHT22;1546;47.208;9.038;2023-02-18T09:18:52;12.20;99.70
3071;DHT22;1546;47.208;9.038;2023-02-18T09:21:21;12.60;99.30
3071;DHT22;1546;47.208;9.038;2023-02-18T09:23:49;13.00;98.50
3071;DHT22;1546;47.208;9.038;2023-02-18T09:26:18;13.30;98.30
3071;DHT22;1546;47.208;9.038;2023-02-18T09:28:47;13.60;97.90
3071;DHT22;1546;47.208;9.038;2023-02-18T09:31:17;13.70;97.30
3071;DHT22;1546;47.208;9.038;2023-02-18T09:33:47;13.90;97.00
3071;DHT22;1546;47.208;9.038;2023-02-18T09:36:15;13.90;96.30
3071;DHT22;1546;47.208;9.038;2023-02-18T09:38:43;13.90;96.00
3071;DHT22;1546;47.208;9.038;2023-02-18T09:41:15;13.80;95.80
3071;DHT22;1546;47.208;9.038;2023-02-18T09:43:48;13.60;96.20
3071;DHT22;1546;47.208;9.038;2023-02-18T09:46:19;13.70;96.90
3071;DHT22;1546;47.208;9.038;2023-02-18T09:48:47;14.10;97.20
3071;DHT22;1546;47.208;9.038;2023-02-18T09:51:15;14.50;96.80
3071;DHT22;1546;47.208;9.038;2023-02-18T09:53:45;14.80;96.70
3071;DHT22;1546;47.208;9.038;2023-02-18T09:56:13;15.30;96.50
3071;DHT22;1546;47.208;9.038;2023-02-18T09:58:41;15.30;97.10
3071;DHT22;1546;47.208;9.038;2023-02-18T10:01:14;15.50;96.70
3071;DHT22;1546;47.208;9.038;2023-02-18T10:03:42;15.60;95.40
3071;DHT22;1546;47.208;9.038;2023-02-18T10:06:14;15.80;94.60
3071;DHT22;1546;47.208;9.038;2023-02-18T10:08:45;15.80;94.00
3071;DHT22;1546;47.208;9.038;2023-02-18T10:11:14;15.70;94.70
3071;DHT22;1546;47.208;9.038;2023-02-18T10:13:43;15.80;94.50
3071;DHT22;1546;47.208;9.038;2023-02-18T10:16:16;15.80;93.80
3071;DHT22;1546;47.208;9.038;2023-02-18T10:18:45;15.80;93.40
3071;DHT22;1546;47.208;9.038;2023-02-18T10:21:15;15.70;93.60
3071;DHT22;1546;47.208;9.038;2023-02-18T10:23:51;15.80;94.10
3071;DHT22;1546;47.208;9.038;2023-02-18T10:26:19;16.00;93.50
3071;DHT22;1546;47.208;9.038;2023-02-18T10:28:46;16.10;93.40
3071;DHT22;1546;47.208;9.038;2023-02-18T10:31:17;16.20;92.80
3071;DHT22;1546;47.208;9.038;2023-02-18T10:33:50;16.40;92.50
3071;DHT22;1546;47.208;9.038;2023-02-18T10:36:24;16.80;92.90
3071;DHT22;1546;47.208;9.038;2023-02-18T10:39:22;17.60;93.20
3071;DHT22;1546;47.208;9.038;2023-02-18T10:42:04;18.50;91.20
3071;DHT22;1546;47.208;9.038;2023-02-18T10:44:44;18.30;89.70
3071;DHT22;1546;47.208;9.038;2023-02-18T10:47:18;18.00;90.00
3071;DHT22;1546;47.208;9.038;2023-02-18T10:50:07;17.70;89.70
3071;DHT22;1546;47.208;9.038;2023-02-18T10:52:38;17.50;91.10
3071;DHT22;1546;47.208;9.038;2023-02-18T10:55:09;17.60;91.00
3071;DHT22;1546;47.208;9.038;2023-02-18T10:57:47;17.70;89.50
3071;DHT22;1546;47.208;9.038;2023-02-18T11:00:16;17.80;89.20
3071;DHT22;1546;47.208;9.038;2023-02-18T11:02:45;18.30;89.60
3071;DHT22;1546;47.208;9.038;2023-02-18T11:05:22;18.40;87.40
3071;DHT22;1546;47.208;9.038;2023-02-18T11:07:52;18.40;90.00
3071;DHT22;1546;47.208;9.038;2023-02-18T11:10:24;18.80;87.20
3071;DHT22;1546;47.208;9.038;2023-02-18T11:12:55;19.10;86.90
3071;DHT22;1546;47.208;9.038;2023-02-18T11:15:24;18.70;85.90
3071;DHT22;1546;47.208;9.038;2023-02-18T11:17:53;18.10;87.20
3071;DHT22;1546;47.208;9.038;2023-02-18T11:20:27;17.70;88.50
3071;DHT22;1546;47.208;9.038;2023-02-18T11:23:11;17.60;88.60
3071;DHT22;1546;47.208;9.038;2023-02-18T11:25:41;17.70;90.10
3071;DHT22;1546;47.208;9.038;2023-02-18T11:28:30;18.20;87.70
3071;DHT22;1546;47.208;9.038;2023-02-18T11:31:00;18.40;86.50
3071;DHT22;1546;47.208;9.038;2023-02-18T11:33:32;18.90;86.90
3071;DHT22;1546;47.208;9.038;2023-02-18T11:36:03;19.80;86.00
3071;DHT22;1546;47.208;9.038;2023-02-18T11:38:35;20.40;83.40
3071;DHT22;1546;47.208;9.038;2023-02-18T11:41:07;20.40;82.50
3071;DHT22;1546;47.208;9.038;2023-02-18T11:43:35;20.10;82.40
3071;DHT22;1546;47.208;9.038;2023-02-18T11:46:10;20.30;82.30
3071;DHT22;1546;47.208;9.038;2023-02-18T11:48:37;20.60;80.60
3071;DHT22;1546;47.208;9.038;2023-02-18T11:51:04;20.80;80.40
3071;DHT22;1546;47.208;9.038;2023-02-18T11:53:33;21.00;80.20
3071;DHT22;1546;47.208;9.038;2023-02-18T11:56:01;19.90;82.10
3071;DHT22;1546;47.208;9.038;2023-02-18T11:58:35;19.10;83.30
3071;DHT22;1546;47.208;9.038;2023-02-18T12:01:04;18.90;85.20
3071;DHT22;1546;47.208;9.038;2023-02-18T12:03:37;18.80;85.30
3071;DHT22;1546;47.208;9.038;2023-02-18T12:06:13;19.10;85.10
3071;DHT22;1546;47.208;9.038;2023-02-18T12:08:48;19.10;84.60
3071;DHT22;1546;47.208;9.038;2023-02-18T12:11:24;19.00;83.30
3071;DHT22;1546;47.208;9.038;2023-02-18T12:13:55;19.60;83.80
3071;DHT22;1546;47.208;9.038;2023-02-18T12:16:29;19.90;82.40
3071;DHT22;1546;47.208;9.038;2023-02-18T12:19:09;20.30;82.10
3071;DHT22;1546;47.208;9.038;2023-02-18T12:21:44;20.60;80.50
3071;DHT22;1546;47.208;9.038;2023-02-18T12:24:25;21.00;79.40
3071;DHT22;1546;47.208;9.038;2023-02-18T12:27:05;21.10;79.50
3071;DHT22;1546;47.208;9.038;2023-02-18T12:29:58;21.40;76.90
3071;DHT22;1546;47.208;9.038;2023-02-18T12:32:36;21.70;77.20
3071;DHT22;1546;47.208;9.038;2023-02-18T12:35:28;21.80;77.20
3071;DHT22;1546;47.208;9.038;2023-02-18T12:38:10;21.90;76.90
3071;DHT22;1546;47.208;9.038;2023-02-18T12:40:52;21.70;76.70
3071;DHT22;1546;47.208;9.038;2023-02-18T12:43:34;22.20;75.50
3071;DHT22;1546;47.208;9.038;2023-02-18T12:46:23;22.30;75.30
3071;DHT22;1546;47.208;9.038;2023-02-18T12:49:30;23.40;73.90
3071;DHT22;1546;47.208;9.038;2023-02-18T12:52:08;23.90;70.40
3071;DHT22;1546;47.208;9.038;2023-02-18T12:54:55;24.30;70.20
3071;DHT22;1546;47.208;9.038;2023-02-18T12:57:35;24.20;69.00
3071;DHT22;1546;47.208;9.038;2023-02-18T13:00:34;24.90;69.20
3071;DHT22;1546;47.208;9.038;2023-02-18T13:03:23;25.10;68.20
3071;DHT22;1546;47.208;9.038;2023-02-18T13:05:57;25.10;66.90
3071;DHT22;1546;47.208;9.038;2023-02-18T13:08:37;24.90;65.40
3071;DHT22;1546;47.208;9.038;2023-02-18T13:11:15;24.20;67.10
3071;DHT22;1546;47.208;9.038;2023-02-18T13:13:49;24.10;66.70
3071;DHT22;1546;47.208;9.038;2023-02-18T13:16:19;24.50;66.80
3071;DHT22;1546;47.208;9.038;2023-02-18T13:18:57;23.80;66.50
3071;DHT22;1546;47.208;9.038;2023-02-18T13:21:25;24.20;67.50
3071;DHT22;1546;47.208;9.038;2023-02-18T13:23:57;25.40;65.60
3071;DHT22;1546;47.208;9.038;2023-02-18T13:26:25;25.50;71.00
3071;DHT22;1546;47.208;9.038;2023-02-18T13:29:03;25.60;71.00
3071;DHT22;1546;47.208;9.038;2023-02-18T13:31:40;25.80;70.00
3071;DHT22;1546;47.208;9.038;2023-02-18T13:34:14;26.00;70.00
3071;DHT22;1546;47.208;9.038;2023-02-18T13:36:51;25.50;68.70
3071;DHT22;1546;47.208;9.038;2023-02-18T13:39:21;25.00;70.10
3071;DHT22;1546;47.208;9.038;2023-02-18T13:41:50;24.00;71.10
3071;DHT22;1546;47.208;9.038;2023-02-18T13:44:39;23.50;72.00
3071;DHT22;1546;47.208;9.038;2023-02-18T13:47:07;24.00;72.00
3071;DHT22;1546;47.208;9.038;2023-02-18T13:49:37;24.30;71.10
3071;DHT22;1546;47.208;9.038;2023-02-18T13:52:05;24.70;71.00
3071;DHT22;1546;47.208;9.038;2023-02-18T13:54:37;25.50;69.60
3071;DHT22;1546;47.208;9.038;2023-02-18T13:57:11;25.50;67.50
3071;DHT22;1546;47.208;9.038;2023-02-18T13:59:41;25.80;67.90
3071;DHT22;1546;47.208;9.038;2023-02-18T14:02:33;25.80;68.00
3071;DHT22;1546;47.208;9.038;2023-02-18T14:05:20;26.70;66.40
3071;DHT22;1546;47.208;9.038;2023-02-18T14:07:50;27.20;66.60
3071;DHT22;1546;47.208;9.038;2023-02-18T14:10:35;27.80;67.40
3071;DHT22;1546;47.208;9.038;2023-02-18T14:13:22;27.90;65.50
3071;DHT22;1546;47.208;9.038;2023-02-18T14:15:57;27.80;66.00
3071;DHT22;1546;47.208;9.038;2023-02-18T14:21:34;27.60;65.80
3071;DHT22;1546;47.208;9.038;2023-02-18T14:24:03;28.00;64.50
3071;DHT22;1546;47.208;9.038;2023-02-18T14:26:34;28.90;63.20
3071;DHT22;1546;47.208;9.038;2023-02-18T14:29:05;29.10;62.30
3071;DHT22;1546;47.208;9.038;2023-02-18T14:31:39;27.80;64.10
3071;DHT22;1546;47.208;9.038;2023-02-18T14:34:29;27.70;64.20
3071;DHT22;1546;47.208;9.038;2023-02-18T14:37:16;27.60;64.10
3071;DHT22;1546;47.208;9.038;2023-02-18T14:39:54;27.90;63.70
3071;DHT22;1546;47.208;9.038;2023-02-18T14:42:29;28.40;62.30
3071;DHT22;1546;47.208;9.038;2023-02-18T14:45:11;28.20;62.50
3071;DHT22;1546;47.208;9.038;2023-02-18T14:48:02;27.00;63.60
3071;DHT22;1546;47.208;9.038;2023-02-18T14:50:34;26.40;64.80
3071;DHT22;1546;47.208;9.038;2023-02-18T14:53:05;27.00;64.00
3071;DHT22;1546;47.208;9.038;2023-02-18T14:55:39;27.10;63.30
3071;DHT22;1546;47.208;9.038;2023-02-18T14:58:14;27.60;63.70
3071;DHT22;1546;47.208;9.038;2023-02-18T15:00:44;28.10;63.60
3071;DHT22;1546;47.208;9.038;2023-02-18T15:03:13;27.80;62.30
3071;DHT22;1546;47.208;9.038;2023-02-18T15:05:41;27.40;63.30
3071;DHT22;1546;47.208;9.038;2023-02-18T15:08:15;27.60;62.30
3071;DHT22;1546;47.208;9.038;2023-02-18T15:10:44;28.00;62.20
3071;DHT22;1546;47.208;9.038;2023-02-18T15:13:16;28.00;62.10
3071;DHT22;1546;47.208;9.038;2023-02-18T15:15:44;27.80;62.30
3071;DHT22;1546;47.208;9.038;2023-02-18T15:18:20;26.60;64.60
3071;DHT22;1546;47.208;9.038;2023-02-18T15:20:49;26.00;64.40
3071;DHT22;1546;47.208;9.038;2023-02-18T15:23:18;25.00;65.80
3071;DHT22;1546;47.208;9.038;2023-02-18T15:25:48;24.00;67.00
3071;DHT22;1546;47.208;9.038;2023-02-18T15:28:24;23.20;67.80
3071;DHT22;1546;47.208;9.038;2023-02-18T15:30:51;23.20;70.10
3071;DHT22;1546;47.208;9.038;2023-02-18T15:33:20;23.50;70.50
3071;DHT22;1546;47.208;9.038;2023-02-18T15:35:47;22.90;70.50
3071;DHT22;1546;47.208;9.038;2023-02-18T15:38:17;22.20;71.40
3071;DHT22;1546;47.208;9.038;2023-02-18T15:40:47;21.80;72.10
3071;DHT22;1546;47.208;9.038;2023-02-18T15:43:19;21.60;73.20
3071;DHT22;1546;47.208;9.038;2023-02-18T15:45:47;21.50;74.20
3071;DHT22;1546;47.208;9.038;2023-02-18T15:48:23;21.30;74.20
3071;DHT22;1546;47.208;9.038;2023-02-18T15:50:52;21.00;73.90
3071;DHT22;1546;47.208;9.038;2023-02-18T15:53:21;20.70;73.90
3071;DHT22;1546;47.208;9.038;2023-02-18T15:55:50;20.10;73.80
3071;DHT22;1546;47.208;9.038;2023-02-18T15:58:22;19.70;73.60
3071;DHT22;1546;47.208;9.038;2023-02-18T16:00:52;19.30;70.20
3071;DHT22;1546;47.208;9.038;2023-02-18T16:03:21;19.20;71.80
3071;DHT22;1546;47.208;9.038;2023-02-18T16:05:49;19.00;72.00
3071;DHT22;1546;47.208;9.038;2023-02-18T16:08:25;18.70;73.20
3071;DHT22;1546;47.208;9.038;2023-02-18T16:10:53;18.30;74.20
3071;DHT22;1546;47.208;9.038;2023-02-18T16:13:22;18.20;74.50
3071;DHT22;1546;47.208;9.038;2023-02-18T16:15:51;18.20;74.90
3071;DHT22;1546;47.208;9.038;2023-02-18T16:18:29;18.30;74.50
3071;DHT22;1546;47.208;9.038;2023-02-18T16:20:59;18.40;74.90
3071;DHT22;1546;47.208;9.038;2023-02-18T16:23:34;18.10;74.80
3071;DHT22;1546;47.208;9.038;2023-02-18T16:26:18;17.90;73.90
3071;DHT22;1546;47.208;9.038;2023-02-18T16:28:46;17.40;75.60
3071;DHT22;1546;47.208;9.038;2023-02-18T16:31:13;16.80;76.70
3071;DHT22;1546;47.208;9.038;2023-02-18T16:33:41;16.20;78.50
3071;DHT22;1546;47.208;9.038;2023-02-18T16:36:10;15.50;80.60
3071;DHT22;1546;47.208;9.038;2023-02-18T16:38:41;15.00;82.10
3071;DHT22;1546;47.208;9.038;2023-02-18T16:41:09;14.80;83.50